sensor_id;sensor_type;location;lat;lon;timestamp;pressure;altitude;pressure_sealevel;temperature;humidity
28344;BME280;15597;50.914;6.638;2023-05-10T00:01:21;100079.19;;;20.40;55.16
28344;BME280;15597;50.914;6.638;2023-05-10T00:03:47;100078.44;;;20.38;54.90
28344;BME280;15597;50.914;6.638;2023-05-10T00:06:12;100070.47;;;20.38;55.06
28344;BME280;15597;50.914;6.638;2023-05-10T00:08:38;100073.13;;;20.38;54.76
28344;BME280;15597;50.914;6.638;2023-05-10T00:11:04;100078.44;;;20.38;55.07
28344;BME280;15597;50.914;6.638;2023-05-10T00:13:29;100073.13;;;20.38;55.21
28344;BME280;15597;50.914;6.638;2023-05-10T00:15:55;100074.81;;;20.39;54.94
28344;BME280;15597;50.914;6.638;2023-05-10T00:18:21;100076.53;;;20.40;54.97
28344;BME280;15597;50.914;6.638;2023-05-10T00:20:46;100074.59;;;20.42;54.55
28344;BME280;15597;50.914;6.638;2023-05-10T00:23:12;100072.78;;;20.42;54.44
28344;BME280;15597;50.914;6.638;2023-05-10T00:25:38;100076.28;;;20.43;54.70
28344;BME280;15597;50.914;6.638;2023-05-10T00:28:03;100067.59;;;20.41;54.83
28344;BME280;15597;50.914;6.638;2023-05-10T00:30:29;100073.84;;;20.40;54.70
28344;BME280;15597;50.914;6.638;2023-05-10T00:32:55;100075.88;;;20.36;55.09
28344;BME280;15597;50.914;6.638;2023-05-10T00:35:20;100071.22;;;20.27;55.09
28344;BME280;15597;50.914;6.638;2023-05-10T00:37:47;100076.75;;;20.24;55.07
28344;BME280;15597;50.914;6.638;2023-05-10T00:40:13;100076.88;;;20.22;54.90
28344;BME280;15597;50.914;6.638;2023-05-10T00:42:40;100077.16;;;20.18;55.18
28344;BME280;15597;50.914;6.638;2023-05-10T00:45:06;100075.59;;;20.15;55.37
28344;BME280;15597;50.914;6.638;2023-05-10T00:47:32;100072.94;;;20.15;55.03
28344;BME280;15597;50.914;6.638;2023-05-10T00:49:59;100081.84;;;20.14;55.44
28344;BME280;15597;50.914;6.638;2023-05-10T00:52:27;100076.53;;;20.14;55.08
28344;BME280;15597;50.914;6.638;2023-05-10T00:54:53;100078.34;;;20.13;55.39
28344;BME280;15597;50.914;6.638;2023-05-10T00:57:19;100076.53;;;20.14;55.19
28344;BME280;15597;50.914;6.638;2023-05-10T00:59:45;100072.94;;;20.15;55.33
28344;BME280;15597;50.914;6.638;2023-05-10T01:02:11;100071.13;;;20.16;55.28
28344;BME280;15597;50.914;6.638;2023-05-10T01:04:38;100082.47;;;20.18;54.96
28344;BME280;15597;50.914;6.638;2023-05-10T01:07:05;100084.19;;;20.19;54.99
28344;BME280;15597;50.914;6.638;2023-05-10T01:09:30;100078.03;;;20.18;55.29
28344;BME280;15597;50.914;6.638;2023-05-10T01:11:57;100074.63;;;20.16;55.23
28344;BME280;15597;50.914;6.638;2023-05-10T01:14:24;100074.44;;;20.19;55.06
28344;BME280;15597;50.914;6.638;2023-05-10T01:16:50;100069.94;;;20.20;55.04
28344;BME280;15597;50.914;6.638;2023-05-10T01:19:18;100073.47;;;20.20;55.09
28344;BME280;15597;50.914;6.638;2023-05-10T01:22:04;100072.28;;;20.11;54.98
28344;BME280;15597;50.914;6.638;2023-05-10T01:33:19;100086.75;;;20.07;55.50
28344;BME280;15597;50.914;6.638;2023-05-10T01:38:34;100073.34;;;20.09;55.26
28344;BME280;15597;50.914;6.638;2023-05-10T01:43:46;100066.13;;;20.11;55.37
28344;BME280;15597;50.914;6.638;2023-05-10T01:46:17;100074.81;;;20.13;55.37
28344;BME280;15597;50.914;6.638;2023-05-10T01:48:47;100076.53;;;20.14;55.09
28344;BME280;15597;50.914;6.638;2023-05-10T01:51:23;100080.13;;;20.13;55.45
28344;BME280;15597;50.914;6.638;2023-05-10T01:53:49;100077.38;;;20.14;55.34
28344;BME280;15597;50.914;6.638;2023-05-10T01:56:19;100074.81;;;20.13;54.99
28344;BME280;15597;50.914;6.638;2023-05-10T01:58:48;100076.53;;;20.14;55.31
28344;BME280;15597;50.914;6.638;2023-05-10T02:01:15;100078.44;;;20.12;55.24
28344;BME280;15597;50.914;6.638;2023-05-10T02:03:43;100077.06;;;19.93;55.54
28344;BME280;15597;50.914;6.638;2023-05-10T02:06:10;100071.44;;;19.98;55.72
28344;BME280;15597;50.914;6.638;2023-05-10T02:08:39;100075.69;;;20.00;55.87
28344;BME280;15597;50.914;6.638;2023-05-10T02:11:05;100079.72;;;20.06;55.61
28344;BME280;15597;50.914;6.638;2023-05-10T02:13:34;100070.91;;;20.06;55.39
28344;BME280;15597;50.914;6.638;2023-05-10T02:16:03;100079.00;;;20.04;55.72
28344;BME280;15597;50.914;6.638;2023-05-10T02:18:31;100087.03;;;20.03;55.41
28344;BME280;15597;50.914;6.638;2023-05-10T02:20:59;100092.69;;;19.98;55.28
28344;BME280;15597;50.914;6.638;2023-05-10T02:23:25;100092.25;;;19.91;55.65
28344;BME280;15597;50.914;6.638;2023-05-10T02:25:53;100090.94;;;19.84;55.83
28344;BME280;15597;50.914;6.638;2023-05-10T02:28:21;100093.81;;;19.81;55.80
28344;BME280;15597;50.914;6.638;2023-05-10T02:30:47;100098.38;;;19.79;55.70
28344;BME280;15597;50.914;6.638;2023-05-10T02:33:14;100101.03;;;19.79;55.81
28344;BME280;15597;50.914;6.638;2023-05-10T02:35:40;100104.63;;;19.78;55.79
28344;BME280;15597;50.914;6.638;2023-05-10T02:38:08;100103.06;;;19.75;55.71
28344;BME280;15597;50.914;6.638;2023-05-10T02:40:36;100104.84;;;19.75;55.74
28344;BME280;15597;50.914;6.638;2023-05-10T02:43:02;100107.50;;;19.75;55.68
28344;BME280;15597;50.914;6.638;2023-05-10T02:45:31;100097.63;;;19.77;55.87
28344;BME280;15597;50.914;6.638;2023-05-10T02:47:58;100105.59;;;19.77;55.86
28344;BME280;15597;50.914;6.638;2023-05-10T02:50:25;100106.66;;;19.74;55.96
28344;BME280;15597;50.914;6.638;2023-05-10T02:52:54;100114.72;;;19.73;55.80
28344;BME280;15597;50.914;6.638;2023-05-10T02:55:26;100110.47;;;19.70;55.78
28344;BME280;15597;50.914;6.638;2023-05-10T02:58:01;100116.09;;;19.65;55.86
28344;BME280;15597;50.914;6.638;2023-05-10T03:00:27;100120.66;;;19.63;55.81
28344;BME280;15597;50.914;6.638;2023-05-10T03:02:53;100117.25;;;19.61;55.93
28344;BME280;15597;50.914;6.638;2023-05-10T03:05:19;100114.50;;;19.63;55.87
28344;BME280;15597;50.914;6.638;2023-05-10T03:07:46;100115.13;;;19.66;55.85
28344;BME280;15597;50.914;6.638;2023-05-10T03:10:12;100118.53;;;19.68;56.05
28344;BME280;15597;50.914;6.638;2023-05-10T03:17:56;100111.22;;;19.72;56.00
28344;BME280;15597;50.914;6.638;2023-05-10T03:20:35;100116.63;;;19.70;56.00
28344;BME280;15597;50.914;6.638;2023-05-10T03:25:43;100120.03;;;19.73;56.10
28344;BME280;15597;50.914;6.638;2023-05-10T03:28:11;100121.09;;;19.70;55.82
28344;BME280;15597;50.914;6.638;2023-05-10T03:30:38;100127.25;;;19.70;55.75
28344;BME280;15597;50.914;6.638;2023-05-10T03:33:07;100129.16;;;19.68;55.90
28344;BME280;15597;50.914;6.638;2023-05-10T03:35:36;100131.72;;;19.70;55.88
28344;BME280;15597;50.914;6.638;2023-05-10T03:38:03;100127.66;;;19.64;55.92
28344;BME280;15597;50.914;6.638;2023-05-10T03:40:28;100125.41;;;19.58;55.99
28344;BME280;15597;50.914;6.638;2023-05-10T03:42:57;100128.47;;;19.52;56.18
28344;BME280;15597;50.914;6.638;2023-05-10T03:45:22;100127.06;;;19.46;56.58
28344;BME280;15597;50.914;6.638;2023-05-10T03:47:48;100129.94;;;19.43;56.63
28344;BME280;15597;50.914;6.638;2023-05-10T03:50:13;100131.09;;;19.39;56.68
28344;BME280;15597;50.914;6.638;2023-05-10T03:52:39;100132.91;;;19.38;56.74
28344;BME280;15597;50.914;6.638;2023-05-10T03:55:05;100132.16;;;19.36;56.91
28344;BME280;15597;50.914;6.638;2023-05-10T03:57:31;100132.03;;;19.38;56.74
28344;BME280;15597;50.914;6.638;2023-05-10T03:59:57;100129.50;;;19.36;56.92
28344;BME280;15597;50.914;6.638;2023-05-10T04:02:23;100133.84;;;19.37;56.70
28344;BME280;15597;50.914;6.638;2023-05-10T04:04:48;100132.97;;;19.37;56.79
28344;BME280;15597;50.914;6.638;2023-05-10T04:07:14;100134.81;;;19.36;56.84
28344;BME280;15597;50.914;6.638;2023-05-10T04:09:40;100141.16;;;19.34;56.85
28344;BME280;15597;50.914;6.638;2023-05-10T04:12:06;100126.50;;;19.28;56.91
28344;BME280;15597;50.914;6.638;2023-05-10T04:14:31;100126.91;;;19.22;56.84
28344;BME280;15597;50.914;6.638;2023-05-10T04:16:57;100139.41;;;19.20;57.08
28344;BME280;15597;50.914;6.638;2023-05-10T04:19:22;100134.31;;;19.17;57.09
28344;BME280;15597;50.914;6.638;2023-05-10T04:21:48;100143.22;;;19.16;57.17
28344;BME280;15597;50.914;6.638;2023-05-10T04:24:13;100129.41;;;19.10;57.19
28344;BME280;15597;50.914;6.638;2023-05-10T04:26:40;100136.41;;;19.11;57.24
28344;BME280;15597;50.914;6.638;2023-05-10T04:29:05;100129.41;;;19.10;57.22
28344;BME280;15597;50.914;6.638;2023-05-10T04:31:31;100135.53;;;19.11;57.12
28344;BME280;15597;50.914;6.638;2023-05-10T04:33:56;100140.84;;;19.11;57.28
28344;BME280;15597;50.914;6.638;2023-05-10T04:36:22;100136.22;;;19.15;57.16
28344;BME280;15597;50.914;6.638;2023-05-10T04:38:48;100135.34;;;19.14;57.18
28344;BME280;15597;50.914;6.638;2023-05-10T04:41:13;100132.81;;;19.12;57.15
28344;BME280;15597;50.914;6.638;2023-05-10T04:43:39;100139.34;;;19.07;57.09
28344;BME280;15597;50.914;6.638;2023-05-10T04:46:05;100133.38;;;19.03;57.28
28344;BME280;15597;50.914;6.638;2023-05-10T04:48:31;100145.88;;;19.01;57.42
28344;BME280;15597;50.914;6.638;2023-05-10T04:50:57;100144.53;;;18.94;57.27
28344;BME280;15597;50.914;6.638;2023-05-10T04:53:22;100153.84;;;18.87;57.46
28344;BME280;15597;50.914;6.638;2023-05-10T04:55:48;100155.72;;;18.84;57.47
28344;BME280;15597;50.914;6.638;2023-05-10T04:58:14;100154.03;;;18.83;57.61
28344;BME280;15597;50.914;6.638;2023-05-10T05:00:40;100160.19;;;18.84;57.69
28344;BME280;15597;50.914;6.638;2023-05-10T05:03:05;100161.03;;;18.84;57.69
28344;BME280;15597;50.914;6.638;2023-05-10T05:05:31;100163.47;;;18.88;57.74
28344;BME280;15597;50.914;6.638;2023-05-10T05:07:56;100167.66;;;18.92;57.73
28344;BME280;15597;50.914;6.638;2023-05-10T05:10:22;100178.06;;;18.95;57.60
28344;BME280;15597;50.914;6.638;2023-05-10T05:12:48;100177.06;;;18.97;57.45
28344;BME280;15597;50.914;6.638;2023-05-10T05:15:13;100183.19;;;18.98;57.38
28344;BME280;15597;50.914;6.638;2023-05-10T05:17:40;100186.72;;;18.98;57.29
28344;BME280;15597;50.914;6.638;2023-05-10T05:20:06;100186.50;;;19.02;57.26
28344;BME280;15597;50.914;6.638;2023-05-10T05:22:32;100180.06;;;19.06;57.26
28344;BME280;15597;50.914;6.638;2023-05-10T05:24:57;100182.59;;;19.07;57.17
28344;BME280;15597;50.914;6.638;2023-05-10T05:27:24;100182.44;;;19.10;57.16
28344;BME280;15597;50.914;6.638;2023-05-10T05:29:55;100186.13;;;19.08;57.19
28344;BME280;15597;50.914;6.638;2023-05-10T05:32:21;100187.75;;;19.10;56.99
28344;BME280;15597;50.914;6.638;2023-05-10T05:34:47;100180.75;;;19.09;57.19
28344;BME280;15597;50.914;6.638;2023-05-10T05:37:17;100189.59;;;19.08;57.05
28344;BME280;15597;50.914;6.638;2023-05-10T05:39:43;100190.47;;;19.09;57.24
28344;BME280;15597;50.914;6.638;2023-05-10T05:42:09;100186.97;;;19.08;57.17
28344;BME280;15597;50.914;6.638;2023-05-10T05:44:35;100188.69;;;19.09;57.02
28344;BME280;15597;50.914;6.638;2023-05-10T05:47:01;100193.03;;;19.10;57.07
28344;BME280;15597;50.914;6.638;2023-05-10T05:49:26;100191.34;;;19.09;57.11
28344;BME280;15597;50.914;6.638;2023-05-10T05:51:52;100205.34;;;19.11;56.92
28344;BME280;15597;50.914;6.638;2023-05-10T05:54:18;100208.75;;;19.14;57.06
28344;BME280;15597;50.914;6.638;2023-05-10T05:56:43;100204.41;;;19.12;57.11
28344;BME280;15597;50.914;6.638;2023-05-10T05:59:10;100209.59;;;19.14;57.16
28344;BME280;15597;50.914;6.638;2023-05-10T06:01:35;100208.84;;;19.12;57.12
28344;BME280;15597;50.914;6.638;2023-05-10T06:04:01;100218.63;;;19.11;57.04
28344;BME280;15597;50.914;6.638;2023-05-10T06:06:27;100213.41;;;19.10;56.99
28344;BME280;15597;50.914;6.638;2023-05-10T06:08:53;100215.00;;;19.12;56.98
28344;BME280;15597;50.914;6.638;2023-05-10T06:11:18;100221.91;;;19.15;57.12
28344;BME280;15597;50.914;6.638;2023-05-10T06:13:44;100217.47;;;19.16;56.92
28344;BME280;15597;50.914;6.638;2023-05-10T06:16:09;100220.88;;;19.18;56.83
28344;BME280;15597;50.914;6.638;2023-05-10T06:18:35;100222.56;;;19.19;56.78
28344;BME280;15597;50.914;6.638;2023-05-10T06:21:01;100231.47;;;19.18;56.96
28344;BME280;15597;50.914;6.638;2023-05-10T06:23:26;100229.03;;;19.15;56.92
28344;BME280;15597;50.914;6.638;2023-05-10T06:25:52;100236.22;;;19.12;57.01
28344;BME280;15597;50.914;6.638;2023-05-10T06:28:18;100238.88;;;19.12;57.02
28344;BME280;15597;50.914;6.638;2023-05-10T06:30:43;100240.59;;;19.14;56.86
28344;BME280;15597;50.914;6.638;2023-05-10T06:33:09;100236.97;;;19.15;56.91
28344;BME280;15597;50.914;6.638;2023-05-10T06:35:35;100249.38;;;19.14;57.00
28344;BME280;15597;50.914;6.638;2023-05-10T06:38:02;100245.88;;;19.14;56.92
28344;BME280;15597;50.914;6.638;2023-05-10T06:40:27;100251.19;;;19.14;57.00
28344;BME280;15597;50.914;6.638;2023-05-10T06:42:53;100254.03;;;19.10;57.03
28344;BME280;15597;50.914;6.638;2023-05-10T06:45:19;100254.97;;;19.09;57.15
28344;BME280;15597;50.914;6.638;2023-05-10T06:47:45;100253.16;;;19.10;57.16
28344;BME280;15597;50.914;6.638;2023-05-10T06:50:11;100266.34;;;19.11;57.20
28344;BME280;15597;50.914;6.638;2023-05-10T06:52:37;100260.09;;;19.12;57.07
28344;BME280;15597;50.914;6.638;2023-05-10T06:55:03;100261.81;;;19.14;57.06
28344;BME280;15597;50.914;6.638;2023-05-10T06:57:29;100263.38;;;19.16;57.07
28344;BME280;15597;50.914;6.638;2023-05-10T06:59:55;100267.56;;;19.20;57.09
28344;BME280;15597;50.914;6.638;2023-05-10T07:02:22;100262.91;;;19.24;57.06
28344;BME280;15597;50.914;6.638;2023-05-10T07:04:48;100272.47;;;19.26;56.81
28344;BME280;15597;50.914;6.638;2023-05-10T07:07:14;100274.09;;;19.29;56.80
28344;BME280;15597;50.914;6.638;2023-05-10T07:09:40;100267.72;;;19.32;56.70
28344;BME280;15597;50.914;6.638;2023-05-10T07:12:05;100261.38;;;19.34;56.57
28344;BME280;15597;50.914;6.638;2023-05-10T07:14:31;100267.44;;;19.36;56.68
28344;BME280;15597;50.914;6.638;2023-05-10T07:16:56;100268.19;;;19.38;56.67
28344;BME280;15597;50.914;6.638;2023-05-10T07:19:22;100268.94;;;19.40;56.70
28344;BME280;15597;50.914;6.638;2023-05-10T07:21:47;100266.31;;;19.40;56.82
28344;BME280;15597;50.914;6.638;2023-05-10T07:24:13;100272.56;;;19.39;56.73
28344;BME280;15597;50.914;6.638;2023-05-10T07:26:38;100265.53;;;19.38;57.07
28344;BME280;15597;50.914;6.638;2023-05-10T07:29:04;100272.56;;;19.39;56.70
28344;BME280;15597;50.914;6.638;2023-05-10T07:31:29;100268.94;;;19.40;56.98
28344;BME280;15597;50.914;6.638;2023-05-10T07:33:55;100274.25;;;19.40;56.75
28344;BME280;15597;50.914;6.638;2023-05-10T07:36:23;100277.84;;;19.39;56.88
28344;BME280;15597;50.914;6.638;2023-05-10T07:38:49;100280.59;;;19.38;56.84
28344;BME280;15597;50.914;6.638;2023-05-10T07:41:15;100284.31;;;19.35;56.94
28344;BME280;15597;50.914;6.638;2023-05-10T07:43:40;100280.97;;;19.32;56.84
28344;BME280;15597;50.914;6.638;2023-05-10T07:46:06;100285.44;;;19.31;57.22
28344;BME280;15597;50.914;6.638;2023-05-10T07:48:31;100276.75;;;19.29;57.04
28344;BME280;15597;50.914;6.638;2023-05-10T07:50:57;100282.03;;;19.29;57.10
28344;BME280;15597;50.914;6.638;2023-05-10T07:53:22;100289.13;;;19.29;57.75
28344;BME280;15597;50.914;6.638;2023-05-10T07:55:54;100287.75;;;19.23;57.66
28344;BME280;15597;50.914;6.638;2023-05-10T07:58:22;100285.84;;;19.25;57.64
28344;BME280;15597;50.914;6.638;2023-05-10T08:00:47;100286.69;;;19.25;57.89
28344;BME280;15597;50.914;6.638;2023-05-10T08:03:14;100288.38;;;19.26;57.81
28344;BME280;15597;50.914;6.638;2023-05-10T08:05:40;100290.28;;;19.24;57.99
28344;BME280;15597;50.914;6.638;2023-05-10T08:08:06;100293.88;;;19.23;57.85
28344;BME280;15597;50.914;6.638;2023-05-10T08:10:31;100298.34;;;19.23;57.67
28344;BME280;15597;50.914;6.638;2023-05-10T08:12:57;100298.34;;;19.23;57.92
28344;BME280;15597;50.914;6.638;2023-05-10T08:15:24;100297.28;;;19.25;57.70
28344;BME280;15597;50.914;6.638;2023-05-10T08:17:51;100307.63;;;19.30;57.75
28344;BME280;15597;50.914;6.638;2023-05-10T08:20:17;100301.38;;;19.31;57.70
28344;BME280;15597;50.914;6.638;2023-05-10T08:22:47;100303.81;;;19.34;57.42
28344;BME280;15597;50.914;6.638;2023-05-10T08:25:12;100304.38;;;19.39;57.68
28344;BME280;15597;50.914;6.638;2023-05-10T08:27:38;100307.59;;;19.45;57.84
28344;BME280;15597;50.914;6.638;2023-05-10T08:30:04;100306.53;;;19.47;57.74
28344;BME280;15597;50.914;6.638;2023-05-10T08:32:30;100302.94;;;19.48;58.05
28344;BME280;15597;50.914;6.638;2023-05-10T08:34:56;100302.84;;;19.50;57.79
28344;BME280;15597;50.914;6.638;2023-05-10T08:37:23;100304.56;;;19.51;58.28
28344;BME280;15597;50.914;6.638;2023-05-10T08:39:48;100321.22;;;19.53;58.13
28344;BME280;15597;50.914;6.638;2023-05-10T08:42:18;100327.38;;;19.53;58.15
28344;BME280;15597;50.914;6.638;2023-05-10T08:44:46;100318.47;;;19.54;57.86
28344;BME280;15597;50.914;6.638;2023-05-10T08:47:13;100328.47;;;19.36;58.02
28344;BME280;15597;50.914;6.638;2023-05-10T08:49:41;100332.44;;;19.44;58.30
28344;BME280;15597;50.914;6.638;2023-05-10T08:52:07;100332.22;;;19.47;58.27
28344;BME280;15597;50.914;6.638;2023-05-10T08:54:33;100335.66;;;19.49;58.09
28344;BME280;15597;50.914;6.638;2023-05-10T08:56:59;100342.66;;;19.50;57.94
28344;BME280;15597;50.914;6.638;2023-05-10T08:59:25;100340.19;;;19.47;58.08
28344;BME280;15597;50.914;6.638;2023-05-10T09:01:52;100344.75;;;19.45;58.03
28344;BME280;15597;50.914;6.638;2023-05-10T09:04:19;100353.09;;;19.24;58.59
28344;BME280;15597;50.914;6.638;2023-05-10T09:06:45;100352.72;;;19.30;58.50
28344;BME280;15597;50.914;6.638;2023-05-10T09:09:11;100350.81;;;19.32;58.45
28344;BME280;15597;50.914;6.638;2023-05-10T09:11:37;100356.97;;;19.33;58.35
28344;BME280;15597;50.914;6.638;2023-05-10T09:14:03;100357.63;;;19.36;58.51
28344;BME280;15597;50.914;6.638;2023-05-10T09:16:28;100365.41;;;19.39;58.36
28344;BME280;15597;50.914;6.638;2023-05-10T09:18:54;100367.00;;;19.42;58.34
28344;BME280;15597;50.914;6.638;2023-05-10T09:21:19;100362.56;;;19.42;58.48
28344;BME280;15597;50.914;6.638;2023-05-10T09:23:45;100366.81;;;19.45;58.63
28344;BME280;15597;50.914;6.638;2023-05-10T09:26:12;100370.41;;;19.44;58.37
28344;BME280;15597;50.914;6.638;2023-05-10T09:29:10;100371.84;;;19.35;58.37
28344;BME280;15597;50.914;6.638;2023-05-10T09:31:44;100373.56;;;19.36;58.46
28344;BME280;15597;50.914;6.638;2023-05-10T09:34:15;100382.28;;;19.38;58.35
28344;BME280;15597;50.914;6.638;2023-05-10T09:37:00;100382.28;;;19.38;58.40
28344;BME280;15597;50.914;6.638;2023-05-10T09:39:34;100378.56;;;19.41;58.52
28344;BME280;15597;50.914;6.638;2023-05-10T09:42:02;100381.69;;;19.48;58.54
28344;BME280;15597;50.914;6.638;2023-05-10T09:44:30;100384.16;;;19.51;58.38
28344;BME280;15597;50.914;6.638;2023-05-10T09:46:55;100387.56;;;19.53;58.38
28344;BME280;15597;50.914;6.638;2023-05-10T09:49:21;100383.03;;;19.55;58.37
28344;BME280;15597;50.914;6.638;2023-05-10T09:51:47;100383.66;;;19.59;58.46
28344;BME280;15597;50.914;6.638;2023-05-10T09:54:15;100383.78;;;19.57;58.26
28344;BME280;15597;50.914;6.638;2023-05-10T09:56:41;100384.72;;;19.56;58.32
28344;BME280;15597;50.914;6.638;2023-05-10T09:59:09;100391.06;;;19.53;58.52
28344;BME280;15597;50.914;6.638;2023-05-10T10:01:36;100386.81;;;19.51;58.28
28344;BME280;15597;50.914;6.638;2023-05-10T10:04:06;100381.69;;;19.48;58.21
28344;BME280;15597;50.914;6.638;2023-05-10T10:06:36;100386.13;;;19.47;58.25
28344;BME280;15597;50.914;6.638;2023-05-10T10:09:02;100385.94;;;19.50;58.34
28344;BME280;15597;50.914;6.638;2023-05-10T10:11:28;100394.78;;;19.51;58.60
28344;BME280;15597;50.914;6.638;2023-05-10T10:13:54;100386.06;;;19.49;58.37
28344;BME280;15597;50.914;6.638;2023-05-10T10:16:20;100387.97;;;19.47;58.56
28344;BME280;15597;50.914;6.638;2023-05-10T10:18:45;100392.50;;;19.45;58.37
28344;BME280;15597;50.914;6.638;2023-05-10T10:21:13;100396.75;;;19.47;58.33
28344;BME280;15597;50.914;6.638;2023-05-10T10:23:38;100397.44;;;19.51;58.40
28344;BME280;15597;50.914;6.638;2023-05-10T10:26:04;100394.59;;;19.54;58.44
28344;BME280;15597;50.914;6.638;2023-05-10T10:28:41;100397.25;;;19.54;58.45
28344;BME280;15597;50.914;6.638;2023-05-10T10:31:26;100399.97;;;19.52;58.35
28344;BME280;15597;50.914;6.638;2023-05-10T10:34:00;100400.84;;;19.53;58.14
28344;BME280;15597;50.914;6.638;2023-05-10T10:36:27;100398.75;;;19.58;58.38
28344;BME280;15597;50.914;6.638;2023-05-10T10:38:57;100396.84;;;19.60;58.25
28344;BME280;15597;50.914;6.638;2023-05-10T10:41:37;100399.31;;;19.63;58.42
28344;BME280;15597;50.914;6.638;2023-05-10T10:49:43;100403.09;;;19.74;57.91
28344;BME280;15597;50.914;6.638;2023-05-10T10:52:30;100406.31;;;19.79;57.87
28344;BME280;15597;50.914;6.638;2023-05-10T10:55:00;100400.41;;;19.88;57.60
28344;BME280;15597;50.914;6.638;2023-05-10T10:57:27;100398.34;;;19.93;57.26
28344;BME280;15597;50.914;6.638;2023-05-10T11:00:17;100405.72;;;19.88;57.51
28344;BME280;15597;50.914;6.638;2023-05-10T11:02:44;100404.22;;;19.98;57.10
28344;BME280;15597;50.914;6.638;2023-05-10T11:05:23;100406.03;;;19.98;57.34
28344;BME280;15597;50.914;6.638;2023-05-10T11:07:56;100408.56;;;19.99;56.80
28344;BME280;15597;50.914;6.638;2023-05-10T11:10:23;100407.41;;;20.04;56.88
28344;BME280;15597;50.914;6.638;2023-05-10T11:13:03;100412.84;;;20.02;57.01
28344;BME280;15597;50.914;6.638;2023-05-10T11:15:33;100408.72;;;20.11;56.87
28344;BME280;15597;50.914;6.638;2023-05-10T11:18:00;100408.25;;;20.19;57.01
28344;BME280;15597;50.914;6.638;2023-05-10T11:20:41;100413.06;;;20.26;56.99
28344;BME280;15597;50.914;6.638;2023-05-10T11:23:13;100415.53;;;20.29;56.73
28344;BME280;15597;50.914;6.638;2023-05-10T11:25:45;100407.91;;;20.38;56.42
28344;BME280;15597;50.914;6.638;2023-05-10T11:28:12;100422.28;;;20.48;56.41
28344;BME280;15597;50.914;6.638;2023-05-10T11:30:38;100419.84;;;20.58;56.26
28344;BME280;15597;50.914;6.638;2023-05-10T11:33:05;100417.75;;;20.63;55.98
28344;BME280;15597;50.914;6.638;2023-05-10T11:35:37;100419.56;;;20.63;55.89
28344;BME280;15597;50.914;6.638;2023-05-10T11:38:08;100423.50;;;20.70;55.87
28344;BME280;15597;50.914;6.638;2023-05-10T11:40:37;100424.81;;;20.77;55.75
28344;BME280;15597;50.914;6.638;2023-05-10T11:43:03;100425.19;;;20.85;55.43
28344;BME280;15597;50.914;6.638;2023-05-10T11:45:31;100422.31;;;20.89;55.47
28344;BME280;15597;50.914;6.638;2023-05-10T11:47:58;100416.56;;;20.95;55.25
28344;BME280;15597;50.914;6.638;2023-05-10T11:50:24;100410.84;;;21.01;54.61
28344;BME280;15597;50.914;6.638;2023-05-10T11:52:54;100419.78;;;21.00;54.89
28344;BME280;15597;50.914;6.638;2023-05-10T11:55:20;100411.28;;;21.08;54.98
28344;BME280;15597;50.914;6.638;2023-05-10T11:57:45;100415.31;;;21.13;54.81
28344;BME280;15597;50.914;6.638;2023-05-10T12:00:12;100417.66;;;21.18;54.73
28344;BME280;15597;50.914;6.638;2023-05-10T12:02:41;100427.25;;;21.21;54.58
28344;BME280;15597;50.914;6.638;2023-05-10T12:05:07;100421.72;;;21.24;53.62
28344;BME280;15597;50.914;6.638;2023-05-10T12:07:32;100418.09;;;21.25;53.51
28344;BME280;15597;50.914;6.638;2023-05-10T12:10:09;100423.63;;;21.22;53.90
28344;BME280;15597;50.914;6.638;2023-05-10T12:12:46;100419.06;;;21.24;53.99
28344;BME280;15597;50.914;6.638;2023-05-10T12:15:20;100415.09;;;21.29;53.53
28344;BME280;15597;50.914;6.638;2023-05-10T12:17:46;100415.53;;;21.36;53.68
28344;BME280;15597;50.914;6.638;2023-05-10T12:20:31;100421.81;;;21.35;53.66
28344;BME280;15597;50.914;6.638;2023-05-10T12:22:58;100423.53;;;21.36;53.44
28344;BME280;15597;50.914;6.638;2023-05-10T12:25:30;100428.09;;;21.34;53.04
28344;BME280;15597;50.914;6.638;2023-05-10T12:27:57;100424.50;;;21.35;53.26
28344;BME280;15597;50.914;6.638;2023-05-10T12:30:25;100425.44;;;21.34;52.86
28344;BME280;15597;50.914;6.638;2023-05-10T12:32:51;100421.81;;;21.35;52.40
28344;BME280;15597;50.914;6.638;2023-05-10T12:35:17;100419.16;;;21.35;52.25
28344;BME280;15597;50.914;6.638;2023-05-10T12:37:44;100421.09;;;21.33;52.61
28344;BME280;15597;50.914;6.638;2023-05-10T12:40:10;100428.09;;;21.34;52.79
28344;BME280;15597;50.914;6.638;2023-05-10T12:42:37;100428.84;;;21.36;52.26
28344;BME280;15597;50.914;6.638;2023-05-10T12:45:04;100434.25;;;21.35;51.96
28344;BME280;15597;50.914;6.638;2023-05-10T12:47:32;100430.25;;;21.29;52.02
28344;BME280;15597;50.914;6.638;2023-05-10T12:49:58;100437.25;;;21.30;52.11
28344;BME280;15597;50.914;6.638;2023-05-10T12:52:24;100424.91;;;21.29;52.07
28344;BME280;15597;50.914;6.638;2023-05-10T12:54:50;100432.16;;;21.27;52.29
28344;BME280;15597;50.914;6.638;2023-05-10T12:57:15;100429.38;;;21.28;52.56
28344;BME280;15597;50.914;6.638;2023-05-10T12:59:41;100432.69;;;21.32;52.39
28344;BME280;15597;50.914;6.638;2023-05-10T13:02:06;100438.63;;;21.36;52.36
28344;BME280;15597;50.914;6.638;2023-05-10T13:04:32;100441.94;;;21.39;52.55
28344;BME280;15597;50.914;6.638;2023-05-10T13:06:58;100449.59;;;21.44;52.87
28344;BME280;15597;50.914;6.638;2023-05-10T13:09:27;100434.28;;;21.48;53.06
28344;BME280;15597;50.914;6.638;2023-05-10T13:11:54;100435.31;;;21.58;52.41
28344;BME280;15597;50.914;6.638;2023-05-10T13:14:20;100442.78;;;21.66;52.79
28344;BME280;15597;50.914;6.638;2023-05-10T13:16:47;100443.44;;;21.69;52.27
28344;BME280;15597;50.914;6.638;2023-05-10T13:19:16;100437.88;;;21.72;52.13